createdAt,value
2017-02-06T00:00:36.585Z,1021.41
2017-02-06T00:01:17.240Z,1021.42
2017-02-06T00:01:57.900Z,1021.46
2017-02-06T00:02:39.159Z,1021.48
2017-02-06T00:03:19.809Z,1021.43
2017-02-06T00:04:00.551Z,1021.45
2017-02-06T00:04:41.234Z,1021.47
2017-02-06T00:05:21.902Z,1021.4
2017-02-06T00:06:02.600Z,1021.41
2017-02-06T00:06:43.256Z,1021.45
2017-02-06T00:07:23.955Z,1021.4
2017-02-06T00:08:04.590Z,1021.39
2017-02-06T00:08:45.294Z,1021.4
2017-02-06T00:09:25.971Z,1021.4
2017-02-06T00:10:06.588Z,1021.4
2017-02-06T00:10:47.290Z,1021.39
2017-02-06T00:11:27.943Z,1021.38
2017-02-06T00:12:08.582Z,1021.39
2017-02-06T00:12:49.266Z,1021.36
2017-02-06T00:13:29.935Z,1021.37
2017-02-06T00:14:10.647Z,1021.37
2017-02-06T00:14:51.325Z,1021.36
2017-02-06T00:15:32.031Z,1021.37
2017-02-06T00:16:12.767Z,1021.34
2017-02-06T00:16:53.407Z,1021.34
2017-02-06T00:17:34.149Z,1021.36
2017-02-06T00:18:14.811Z,1021.32
2017-02-06T00:18:55.511Z,1021.32
2017-02-06T00:19:36.158Z,1021.33
2017-02-06T00:20:16.897Z,1021.34
2017-02-06T00:20:57.610Z,1021.29
2017-02-06T00:21:38.240Z,1021.35
2017-02-06T00:22:18.893Z,1021.35
2017-02-06T00:22:59.622Z,1021.32
2017-02-06T00:23:40.280Z,1021.31
2017-02-06T00:24:20.947Z,1021.31
2017-02-06T00:25:01.635Z,1021.29
2017-02-06T00:25:42.276Z,1021.31
2017-02-06T00:26:22.939Z,1021.3
2017-02-06T00:27:03.643Z,1021.29
2017-02-06T00:27:44.286Z,1021.27
2017-02-06T00:28:24.927Z,1021.28
2017-02-06T00:29:05.576Z,1021.27
2017-02-06T00:29:46.294Z,1021.28
2017-02-06T00:30:26.981Z,1021.26
2017-02-06T00:31:07.631Z,1021.28
2017-02-06T00:31:48.341Z,1021.27
2017-02-06T00:32:28.991Z,1021.24
2017-02-06T00:33:09.645Z,1021.27
2017-02-06T00:33:50.346Z,1021.28
2017-02-06T00:34:31.881Z,1021.22
2017-02-06T00:35:12.517Z,1021.25
2017-02-06T00:35:53.208Z,1021.24
2017-02-06T00:36:33.851Z,1021.21
2017-02-06T00:37:14.482Z,1021.26
2017-02-06T00:37:55.171Z,1021.27
2017-02-06T00:38:35.810Z,1021.23
2017-02-06T00:39:16.441Z,1021.2
2017-02-06T00:39:57.107Z,1021.22
2017-02-06T00:40:37.779Z,1021.25
2017-02-06T00:41:18.433Z,1021.23
2017-02-06T00:41:59.191Z,1021.22
2017-02-06T00:42:39.859Z,1021.21
2017-02-06T00:43:20.519Z,1021.22
2017-02-06T00:44:01.181Z,1021.22
2017-02-06T00:44:41.877Z,1021.21
2017-02-06T00:45:22.546Z,1021.2
2017-02-06T00:46:03.200Z,1021.2
2017-02-06T00:46:43.916Z,1021.21
2017-02-06T00:47:24.561Z,1021.17
2017-02-06T00:48:05.232Z,1021.21
2017-02-06T00:48:45.904Z,1021.14
2017-02-06T00:49:26.538Z,1021.16
2017-02-06T00:50:07.248Z,1021.15
2017-02-06T00:50:47.898Z,1021.18
2017-02-06T00:51:28.607Z,1021.18
2017-02-06T00:52:09.276Z,1021.19
2017-02-06T00:52:49.925Z,1021.18
2017-02-06T00:53:30.698Z,1021.2
2017-02-06T00:54:11.424Z,1021.19
2017-02-06T00:54:52.082Z,1021.2
2017-02-06T00:55:32.726Z,1021.18
2017-02-06T00:56:13.384Z,1021.22
2017-02-06T00:56:54.028Z,1021.16
2017-02-06T00:57:34.668Z,1021.17
2017-02-06T00:58:15.382Z,1021.19
2017-02-06T00:58:56.121Z,1021.14
2017-02-06T00:59:36.768Z,1021.15
2017-02-06T01:00:17.391Z,1021.12
2017-02-06T01:00:58.109Z,1021.12
2017-02-06T01:01:38.797Z,1021.15
2017-02-06T01:02:19.433Z,1021.15
2017-02-06T01:03:00.206Z,1021.13
2017-02-06T01:03:40.941Z,1021.16
2017-02-06T01:04:21.699Z,1021.15
2017-02-06T01:05:02.339Z,1021.11
2017-02-06T01:05:42.975Z,1021.12
2017-02-06T01:06:23.629Z,1021.12
2017-02-06T01:07:04.335Z,1021.07
2017-02-06T01:07:45.084Z,1021.06
2017-02-06T01:08:25.811Z,1021.07
2017-02-06T01:09:07.197Z,1021.06
2017-02-06T01:09:47.840Z,1021.08
2017-02-06T01:10:28.487Z,1021.05
2017-02-06T01:11:09.116Z,1021.06
2017-02-06T01:11:49.858Z,1021.02
2017-02-06T01:12:30.483Z,1021.05
2017-02-06T01:13:11.123Z,1021.07
2017-02-06T01:13:51.815Z,1021.05
2017-02-06T01:14:32.441Z,1021.07
2017-02-06T01:15:13.111Z,1021.06
2017-02-06T01:15:53.828Z,1021.05
2017-02-06T01:16:34.478Z,1021.11
2017-02-06T01:17:15.181Z,1021.12
2017-02-06T01:17:55.837Z,1021.07
2017-02-06T01:18:36.503Z,1021.08
2017-02-06T01:19:17.134Z,1021.06
2017-02-06T01:19:57.782Z,1021.09
2017-02-06T01:20:38.459Z,1021.09
2017-02-06T01:21:19.113Z,1021.05
2017-02-06T01:21:59.773Z,1021.08
2017-02-06T01:22:40.468Z,1021.05
2017-02-06T01:23:21.579Z,1021.04
2017-02-06T01:24:02.322Z,1021.01
2017-02-06T01:24:45.492Z,1021.01
2017-02-06T01:25:26.126Z,1021.01
2017-02-06T01:26:06.775Z,1021.03
2017-02-06T01:26:47.419Z,1021.01
2017-02-06T01:27:28.113Z,1020.98
2017-02-06T01:28:08.799Z,1020.94
2017-02-06T01:28:49.428Z,1020.97
2017-02-06T01:29:30.607Z,1020.98
2017-02-06T01:30:11.230Z,1020.94
2017-02-06T01:30:51.925Z,1020.99
2017-02-06T01:31:32.571Z,1020.98
2017-02-06T01:32:13.210Z,1020.95
2017-02-06T01:32:53.890Z,1020.94
2017-02-06T01:33:34.531Z,1020.95
2017-02-06T01:34:15.152Z,1020.94
2017-02-06T01:34:55.780Z,1020.92
2017-02-06T01:35:36.420Z,1020.91
2017-02-06T01:36:17.052Z,1020.91
2017-02-06T01:36:57.688Z,1020.9
2017-02-06T01:37:38.355Z,1020.89
2017-02-06T01:38:18.981Z,1020.93
2017-02-06T01:38:59.616Z,1020.92
2017-02-06T01:39:40.277Z,1020.92
2017-02-06T01:40:20.917Z,1020.94
2017-02-06T01:41:01.723Z,1020.95
2017-02-06T01:41:42.358Z,1020.9
2017-02-06T01:42:23.028Z,1020.91
2017-02-06T01:43:03.695Z,1020.91
2017-02-06T01:43:44.447Z,1020.93
2017-02-06T01:44:25.712Z,1020.9
2017-02-06T01:45:06.335Z,1020.9
2017-02-06T01:45:47.021Z,1020.88
2017-02-06T01:46:27.672Z,1020.89
2017-02-06T01:47:08.425Z,1020.89
2017-02-06T01:47:49.163Z,1020.88
2017-02-06T01:48:29.784Z,1020.86
2017-02-06T01:49:10.482Z,1020.86
2017-02-06T01:49:51.162Z,1020.84
2017-02-06T01:50:31.876Z,1020.85
2017-02-06T01:51:12.503Z,1020.86
2017-02-06T01:51:53.279Z,1020.88
2017-02-06T01:52:33.989Z,1020.87
2017-02-06T01:53:14.641Z,1020.89
2017-02-06T01:53:55.368Z,1020.89
2017-02-06T01:54:36.007Z,1020.89
2017-02-06T01:55:16.670Z,1020.9
2017-02-06T01:55:57.333Z,1020.89
2017-02-06T01:56:38.010Z,1020.87
2017-02-06T01:57:18.677Z,1020.89
2017-02-06T01:57:59.302Z,1020.88
2017-02-06T01:58:39.957Z,1020.87
2017-02-06T01:59:20.605Z,1020.86
2017-02-06T02:00:01.232Z,1020.84
2017-02-06T02:00:41.902Z,1020.84
2017-02-06T02:01:22.574Z,1020.83
2017-02-06T02:02:03.205Z,1020.84
2017-02-06T02:02:43.892Z,1020.83
2017-02-06T02:03:24.585Z,1020.79
2017-02-06T02:04:05.273Z,1020.8
2017-02-06T02:04:45.929Z,1020.78
2017-02-06T02:05:26.659Z,1020.81
2017-02-06T02:06:07.329Z,1020.83
2017-02-06T02:06:47.956Z,1020.84
2017-02-06T02:07:28.630Z,1020.83
2017-02-06T02:08:09.308Z,1020.85
2017-02-06T02:08:49.937Z,1020.83
2017-02-06T02:09:30.612Z,1020.89
2017-02-06T02:10:11.246Z,1020.86
2017-02-06T02:10:51.889Z,1020.88
2017-02-06T02:11:32.622Z,1020.83
2017-02-06T02:12:13.256Z,1020.86
2017-02-06T02:12:53.935Z,1020.86
2017-02-06T02:13:34.596Z,1020.85
2017-02-06T02:14:15.354Z,1020.83
2017-02-06T02:14:55.981Z,1020.82
2017-02-06T02:15:36.615Z,1020.84
2017-02-06T02:16:17.320Z,1020.82
2017-02-06T02:16:57.943Z,1020.79
2017-02-06T02:17:38.594Z,1020.81
2017-02-06T02:18:19.273Z,1020.85
2017-02-06T02:18:59.909Z,1020.85
2017-02-06T02:19:40.568Z,1020.8
2017-02-06T02:20:21.300Z,1020.82
2017-02-06T02:21:02.017Z,1020.81
2017-02-06T02:21:42.661Z,1020.79
2017-02-06T02:22:23.373Z,1020.78
2017-02-06T02:23:04.066Z,1020.8
2017-02-06T02:23:44.786Z,1020.8
2017-02-06T02:24:25.452Z,1020.78
2017-02-06T02:25:06.080Z,1020.76
2017-02-06T02:25:46.784Z,1020.78
2017-02-06T02:26:27.434Z,1020.78
2017-02-06T02:27:08.077Z,1020.79
2017-02-06T02:27:48.801Z,1020.82
2017-02-06T02:28:29.486Z,1020.83
2017-02-06T02:29:10.120Z,1020.83
2017-02-06T02:29:50.839Z,1020.84
2017-02-06T02:30:31.543Z,1020.86
2017-02-06T02:31:12.223Z,1020.88
2017-02-06T02:31:52.865Z,1020.87
2017-02-06T02:32:33.565Z,1020.9
2017-02-06T02:33:14.206Z,1020.9
2017-02-06T02:33:54.865Z,1020.95
2017-02-06T02:34:35.542Z,1020.96
2017-02-06T02:35:16.217Z,1020.98
2017-02-06T02:35:56.848Z,1020.98
2017-02-06T02:36:37.607Z,1020.97
2017-02-06T02:37:18.310Z,1020.96
2017-02-06T02:37:58.949Z,1020.97
2017-02-06T02:38:39.582Z,1020.94
2017-02-06T02:39:20.265Z,1021
2017-02-06T02:40:00.893Z,1021.01
2017-02-06T02:40:41.524Z,1020.96
2017-02-06T02:41:22.242Z,1020.99
2017-02-06T02:42:02.875Z,1020.97
2017-02-06T02:42:43.501Z,1020.97
2017-02-06T02:43:24.189Z,1020.93
2017-02-06T02:44:04.820Z,1020.94
2017-02-06T02:44:45.455Z,1020.93
2017-02-06T02:45:26.120Z,1020.91
2017-02-06T02:46:06.790Z,1020.93
2017-02-06T02:46:47.430Z,1020.92
2017-02-06T02:47:28.129Z,1020.94
2017-02-06T02:48:08.898Z,1020.95
2017-02-06T02:48:49.537Z,1020.93
2017-02-06T02:49:30.170Z,1020.96
2017-02-06T02:50:10.905Z,1020.92
2017-02-06T02:50:51.534Z,1020.93
2017-02-06T02:51:32.167Z,1020.92
2017-02-06T02:52:12.851Z,1020.94
2017-02-06T02:52:53.583Z,1020.91
2017-02-06T02:53:34.273Z,1020.91
2017-02-06T02:54:14.879Z,1020.93
2017-02-06T02:54:55.520Z,1020.89
2017-02-06T02:55:36.213Z,1020.91
2017-02-06T02:56:16.876Z,1020.92
2017-02-06T02:56:57.503Z,1020.89
2017-02-06T02:57:38.192Z,1020.89
2017-02-06T02:58:18.839Z,1020.91
2017-02-06T02:58:59.536Z,1020.95
2017-02-06T02:59:40.296Z,1020.94
2017-02-06T03:00:20.926Z,1020.92
2017-02-06T03:01:01.607Z,1020.89
2017-02-06T03:01:42.329Z,1020.89
2017-02-06T03:02:23.741Z,1020.88
2017-02-06T03:03:05.235Z,1020.85
2017-02-06T03:03:45.888Z,1020.86
2017-02-06T03:04:26.586Z,1020.87
2017-02-06T03:05:07.308Z,1020.9
2017-02-06T03:05:48.021Z,1020.87
2017-02-06T03:06:28.653Z,1020.9
2017-02-06T03:07:09.370Z,1020.91
2017-02-06T03:07:50.029Z,1020.88
2017-02-06T03:08:30.733Z,1020.9
2017-02-06T03:09:11.421Z,1020.89
2017-02-06T03:09:52.122Z,1020.88
2017-02-06T03:10:32.823Z,1020.9
2017-02-06T03:11:13.453Z,1020.93
2017-02-06T03:11:54.176Z,1020.89
2017-02-06T03:12:34.806Z,1020.89
2017-02-06T03:13:15.478Z,1020.95
2017-02-06T03:13:56.127Z,1020.87
2017-02-06T03:14:36.772Z,1020.87
2017-02-06T03:15:17.467Z,1020.85
2017-02-06T03:15:58.120Z,1020.85
2017-02-06T03:16:38.848Z,1020.82
2017-02-06T03:17:19.515Z,1020.83
2017-02-06T03:18:00.151Z,1020.81
2017-02-06T03:18:40.816Z,1020.82
2017-02-06T03:19:21.484Z,1020.82
2017-02-06T03:20:02.124Z,1020.8
2017-02-06T03:20:42.839Z,1020.79
2017-02-06T03:21:23.551Z,1020.8
2017-02-06T03:22:04.235Z,1020.78
2017-02-06T03:22:44.862Z,1020.78
2017-02-06T03:23:25.576Z,1020.77
2017-02-06T03:24:06.330Z,1020.77
2017-02-06T03:24:46.956Z,1020.76
2017-02-06T03:25:27.639Z,1020.8
2017-02-06T03:26:08.384Z,1020.83
2017-02-06T03:26:49.042Z,1020.81
2017-02-06T03:27:29.681Z,1020.79
2017-02-06T03:28:10.398Z,1020.81
2017-02-06T03:28:51.024Z,1020.83
2017-02-06T03:29:31.647Z,1020.83
2017-02-06T03:30:13.242Z,1020.83
2017-02-06T03:30:53.873Z,1020.84
2017-02-06T03:31:34.509Z,1020.83
2017-02-06T03:32:15.224Z,1020.83
2017-02-06T03:32:56.017Z,1020.8
2017-02-06T03:33:36.711Z,1020.82
2017-02-06T03:34:17.374Z,1020.84
2017-02-06T03:34:57.997Z,1020.86
2017-02-06T03:35:38.690Z,1020.81
2017-02-06T03:36:19.315Z,1020.85
2017-02-06T03:37:00.044Z,1020.84
2017-02-06T03:37:40.706Z,1020.83
2017-02-06T03:38:21.347Z,1020.84
2017-02-06T03:39:02.078Z,1020.86
2017-02-06T03:39:42.856Z,1020.82
2017-02-06T03:40:23.493Z,1020.82
2017-02-06T03:41:04.130Z,1020.83
2017-02-06T03:41:44.900Z,1020.81
2017-02-06T03:42:25.550Z,1020.8
2017-02-06T03:43:06.176Z,1020.8
2017-02-06T03:43:46.857Z,1020.81
2017-02-06T03:44:27.495Z,1020.79
2017-02-06T03:45:08.126Z,1020.77
2017-02-06T03:45:49.362Z,1020.82
2017-02-06T03:46:30.004Z,1020.82
2017-02-06T03:47:10.633Z,1020.79
2017-02-06T03:47:51.362Z,1020.78
2017-02-06T03:48:32.002Z,1020.78
2017-02-06T03:49:12.701Z,1020.78
2017-02-06T03:49:53.389Z,1020.79
2017-02-06T03:50:34.762Z,1020.8
2017-02-06T03:51:15.515Z,1020.74
2017-02-06T03:51:56.221Z,1020.74
2017-02-06T03:52:36.865Z,1020.74
2017-02-06T03:53:17.549Z,1020.78
2017-02-06T03:53:58.256Z,1020.75
2017-02-06T03:54:38.888Z,1020.76
2017-02-06T03:55:19.547Z,1020.74
2017-02-06T03:56:00.200Z,1020.76
2017-02-06T03:56:40.828Z,1020.75
2017-02-06T03:57:21.470Z,1020.76
2017-02-06T03:58:02.120Z,1020.77
2017-02-06T03:58:42.812Z,1020.75
2017-02-06T03:59:23.435Z,1020.74
2017-02-06T04:00:04.088Z,1020.71
2017-02-06T04:00:44.742Z,1020.73
2017-02-06T04:01:25.367Z,1020.73
2017-02-06T04:02:06.041Z,1020.74
2017-02-06T04:02:46.703Z,1020.75
2017-02-06T04:03:27.357Z,1020.76
2017-02-06T04:04:08.036Z,1020.73
2017-02-06T04:04:48.773Z,1020.72
2017-02-06T04:05:29.418Z,1020.68
2017-02-06T04:06:10.068Z,1020.73
2017-02-06T04:06:50.779Z,1020.71
2017-02-06T04:07:31.408Z,1020.73
2017-02-06T04:08:12.047Z,1020.68
2017-02-06T04:08:52.711Z,1020.72
2017-02-06T04:09:33.336Z,1020.7
2017-02-06T04:10:13.955Z,1020.64
2017-02-06T04:10:54.584Z,1020.66
2017-02-06T04:11:35.253Z,1020.66
2017-02-06T04:12:15.883Z,1020.64
2017-02-06T04:12:56.564Z,1020.63
2017-02-06T04:13:37.261Z,1020.62
2017-02-06T04:14:17.886Z,1020.6
2017-02-06T04:14:58.582Z,1020.65
2017-02-06T04:15:39.232Z,1020.66
2017-02-06T04:16:19.855Z,1020.64
2017-02-06T04:17:00.556Z,1020.61
2017-02-06T04:17:41.176Z,1020.63
2017-02-06T04:18:21.818Z,1020.62
2017-02-06T04:19:03.400Z,1020.63
2017-02-06T04:19:44.056Z,1020.64
2017-02-06T04:20:24.703Z,1020.66
2017-02-06T04:21:05.415Z,1020.62
2017-02-06T04:21:46.118Z,1020.64
2017-02-06T04:22:26.805Z,1020.59
2017-02-06T04:23:07.472Z,1020.61
2017-02-06T04:23:48.199Z,1020.59
2017-02-06T04:24:28.909Z,1020.58
2017-02-06T04:25:09.532Z,1020.55
2017-02-06T04:25:50.212Z,1020.55
2017-02-06T04:26:30.903Z,1020.52
2017-02-06T04:27:11.594Z,1020.56
2017-02-06T04:27:52.228Z,1020.52
2017-02-06T04:28:32.935Z,1020.52
2017-02-06T04:29:13.569Z,1020.51
2017-02-06T04:29:54.209Z,1020.47
2017-02-06T04:30:34.912Z,1020.44
2017-02-06T04:31:15.574Z,1020.45
2017-02-06T04:31:56.204Z,1020.42
2017-02-06T04:32:36.871Z,1020.45
2017-02-06T04:33:18.431Z,1020.46
2017-02-06T04:33:59.049Z,1020.45
2017-02-06T04:34:39.774Z,1020.46
2017-02-06T04:35:20.470Z,1020.46
2017-02-06T04:36:01.108Z,1020.46
2017-02-06T04:36:41.817Z,1020.44
2017-02-06T04:37:22.473Z,1020.44
2017-02-06T04:38:03.132Z,1020.44
2017-02-06T04:38:43.851Z,1020.41
2017-02-06T04:39:24.586Z,1020.43
2017-02-06T04:40:05.232Z,1020.45
2017-02-06T04:40:45.866Z,1020.44
2017-02-06T04:41:26.516Z,1020.43
2017-02-06T04:42:07.982Z,1020.41
2017-02-06T04:42:48.680Z,1020.46
2017-02-06T04:43:29.436Z,1020.42
2017-02-06T04:44:10.095Z,1020.42
2017-02-06T04:44:50.741Z,1020.45
2017-02-06T04:45:31.457Z,1020.46
2017-02-06T04:46:12.136Z,1020.45
2017-02-06T04:46:52.844Z,1020.46
2017-02-06T04:47:33.498Z,1020.44
2017-02-06T04:48:14.278Z,1020.45
2017-02-06T04:48:54.984Z,1020.47
2017-02-06T04:49:35.618Z,1020.44
2017-02-06T04:50:16.299Z,1020.5
2017-02-06T04:50:56.927Z,1020.44
2017-02-06T04:51:37.637Z,1020.47
2017-02-06T04:52:18.289Z,1020.48
2017-02-06T04:52:58.915Z,1020.49
2017-02-06T04:53:39.627Z,1020.44
2017-02-06T04:54:20.268Z,1020.46
2017-02-06T04:55:00.971Z,1020.46
2017-02-06T04:55:41.698Z,1020.49
2017-02-06T04:56:22.395Z,1020.48
2017-02-06T04:57:03.031Z,1020.47
2017-02-06T04:57:43.730Z,1020.48
2017-02-06T04:58:24.428Z,1020.48
2017-02-06T04:59:05.054Z,1020.48
2017-02-06T04:59:45.761Z,1020.49
2017-02-06T05:00:26.427Z,1020.47
2017-02-06T05:01:07.055Z,1020.51
2017-02-06T05:01:47.705Z,1020.48
2017-02-06T05:02:28.368Z,1020.49
2017-02-06T05:03:09.015Z,1020.46
2017-02-06T05:03:49.699Z,1020.47
2017-02-06T05:04:30.370Z,1020.46
2017-02-06T05:05:11.002Z,1020.44
2017-02-06T05:05:51.686Z,1020.46
2017-02-06T05:06:33.140Z,1020.45
2017-02-06T05:07:13.792Z,1020.45
2017-02-06T05:07:54.423Z,1020.41
2017-02-06T05:08:35.044Z,1020.47
2017-02-06T05:09:15.680Z,1020.46
2017-02-06T05:09:56.342Z,1020.44
2017-02-06T05:10:37.083Z,1020.42
2017-02-06T05:11:17.730Z,1020.45
2017-02-06T05:11:58.362Z,1020.46
2017-02-06T05:12:39.016Z,1020.45
2017-02-06T05:13:19.648Z,1020.42
2017-02-06T05:14:00.351Z,1020.43
2017-02-06T05:14:41.580Z,1020.46
2017-02-06T05:15:22.312Z,1020.49
2017-02-06T05:16:03.095Z,1020.48
2017-02-06T05:16:43.752Z,1020.48
2017-02-06T05:17:24.399Z,1020.5
2017-02-06T05:18:05.131Z,1020.52
2017-02-06T05:18:45.791Z,1020.5
2017-02-06T05:19:26.435Z,1020.5
2017-02-06T05:20:07.077Z,1020.53
2017-02-06T05:20:47.826Z,1020.5
2017-02-06T05:21:28.546Z,1020.45
2017-02-06T05:22:09.170Z,1020.49
2017-02-06T05:22:49.845Z,1020.46
2017-02-06T05:23:30.607Z,1020.47
2017-02-06T05:24:11.251Z,1020.45
2017-02-06T05:24:51.892Z,1020.45
2017-02-06T05:25:32.629Z,1020.46
2017-02-06T05:26:13.268Z,1020.47
2017-02-06T05:26:53.897Z,1020.44
2017-02-06T05:27:34.575Z,1020.48
2017-02-06T05:28:15.260Z,1020.45
2017-02-06T05:28:55.890Z,1020.45
2017-02-06T05:29:36.540Z,1020.43
2017-02-06T05:30:17.180Z,1020.44
2017-02-06T05:30:57.809Z,1020.43
2017-02-06T05:31:38.541Z,1020.41
2017-02-06T05:32:19.247Z,1020.4
2017-02-06T05:32:59.870Z,1020.43
2017-02-06T05:33:40.521Z,1020.38
2017-02-06T05:34:21.270Z,1020.43
2017-02-06T05:35:01.921Z,1020.4
2017-02-06T05:35:42.551Z,1020.42
2017-02-06T05:36:23.254Z,1020.41
2017-02-06T05:37:03.957Z,1020.42
2017-02-06T05:37:44.615Z,1020.41
2017-02-06T05:38:25.373Z,1020.4
2017-02-06T05:39:06.075Z,1020.43
2017-02-06T05:39:47.303Z,1020.42
2017-02-06T05:40:27.952Z,1020.41
2017-02-06T05:41:08.621Z,1020.41
2017-02-06T05:41:49.330Z,1020.44
2017-02-06T05:42:30.099Z,1020.42
2017-02-06T05:43:10.765Z,1020.42
2017-02-06T05:43:51.397Z,1020.42
2017-02-06T05:44:32.071Z,1020.45
2017-02-06T05:45:12.807Z,1020.42
2017-02-06T05:45:53.473Z,1020.4
2017-02-06T05:46:34.114Z,1020.39
2017-02-06T05:47:14.825Z,1020.43
2017-02-06T05:47:55.452Z,1020.42
2017-02-06T05:48:36.083Z,1020.44
2017-02-06T05:49:16.787Z,1020.43
2017-02-06T05:49:57.465Z,1020.45
2017-02-06T05:50:38.112Z,1020.44
2017-02-06T05:51:18.815Z,1020.47
2017-02-06T05:51:59.445Z,1020.45
2017-02-06T05:52:40.079Z,1020.45
2017-02-06T05:53:20.768Z,1020.44
2017-02-06T05:54:01.507Z,1020.48
2017-02-06T05:54:42.143Z,1020.43
2017-02-06T05:55:22.797Z,1020.45
2017-02-06T05:56:03.460Z,1020.42
2017-02-06T05:56:44.098Z,1020.47
2017-02-06T05:57:24.712Z,1020.42
2017-02-06T05:58:05.443Z,1020.41
2017-02-06T05:58:46.176Z,1020.43
2017-02-06T05:59:26.817Z,1020.41
2017-02-06T06:00:07.524Z,1020.46
2017-02-06T06:00:48.156Z,1020.42
2017-02-06T06:01:28.798Z,1020.44
2017-02-06T06:02:09.423Z,1020.46
2017-02-06T06:02:50.146Z,1020.48
2017-02-06T06:03:30.815Z,1020.46
2017-02-06T06:04:11.440Z,1020.45
2017-02-06T06:04:52.063Z,1020.46
2017-02-06T06:05:32.743Z,1020.5
2017-02-06T06:06:13.369Z,1020.48
2017-02-06T06:06:54.180Z,1020.46
2017-02-06T06:07:34.838Z,1020.47
2017-02-06T06:08:15.466Z,1020.49
2017-02-06T06:08:56.845Z,1020.47
2017-02-06T06:09:37.585Z,1020.47
2017-02-06T06:10:18.224Z,1020.46
2017-02-06T06:10:58.966Z,1020.45
2017-02-06T06:11:39.618Z,1020.47
2017-02-06T06:12:20.248Z,1020.48
2017-02-06T06:13:01.028Z,1020.46
2017-02-06T06:13:42.646Z,1020.45
2017-02-06T06:14:23.326Z,1020.48
2017-02-06T06:15:04.012Z,1020.48
2017-02-06T06:15:44.633Z,1020.49
2017-02-06T06:16:25.336Z,1020.52
2017-02-06T06:17:05.958Z,1020.51
2017-02-06T06:17:46.731Z,1020.52
2017-02-06T06:18:27.436Z,1020.47
2017-02-06T06:19:08.073Z,1020.49
2017-02-06T06:19:48.776Z,1020.51
2017-02-06T06:20:29.452Z,1020.52
2017-02-06T06:21:10.159Z,1020.49
2017-02-06T06:21:50.788Z,1020.51
2017-02-06T06:22:31.477Z,1020.55
2017-02-06T06:23:12.157Z,1020.54
2017-02-06T06:23:52.785Z,1020.55
2017-02-06T06:24:33.441Z,1020.54
2017-02-06T06:25:14.137Z,1020.54
2017-02-06T06:25:54.759Z,1020.55
2017-02-06T06:26:35.478Z,1020.56
2017-02-06T06:27:16.175Z,1020.67
2017-02-06T06:27:56.810Z,1020.62
2017-02-06T06:28:37.447Z,1020.62
2017-02-06T06:29:18.081Z,1020.65
2017-02-06T06:29:58.800Z,1020.62
2017-02-06T06:30:39.435Z,1020.63
2017-02-06T06:31:20.125Z,1020.65
2017-02-06T06:32:00.804Z,1020.66
2017-02-06T06:32:41.463Z,1020.68
2017-02-06T06:33:22.164Z,1020.69
2017-02-06T06:34:02.932Z,1020.66
2017-02-06T06:34:43.657Z,1020.61
2017-02-06T06:35:24.284Z,1020.68
2017-02-06T06:36:04.978Z,1020.66
2017-02-06T06:36:45.642Z,1020.66
2017-02-06T06:37:26.274Z,1020.7
2017-02-06T06:38:06.980Z,1020.64
2017-02-06T06:38:47.628Z,1020.67
2017-02-06T06:39:28.299Z,1020.66
2017-02-06T06:40:08.982Z,1020.63
2017-02-06T06:40:49.616Z,1020.63
2017-02-06T06:41:30.307Z,1020.63
2017-02-06T06:42:10.904Z,1020.65
2017-02-06T06:42:51.586Z,1020.67
2017-02-06T06:43:32.274Z,1020.67
2017-02-06T06:44:12.905Z,1020.66
2017-02-06T06:44:53.611Z,1020.68
2017-02-06T06:45:34.332Z,1020.66
2017-02-06T06:46:14.959Z,1020.63
2017-02-06T06:46:55.699Z,1020.7
2017-02-06T06:47:36.397Z,1020.67
2017-02-06T06:48:17.045Z,1020.69
2017-02-06T06:48:57.673Z,1020.71
2017-02-06T06:49:38.439Z,1020.69
2017-02-06T06:50:19.098Z,1020.69
2017-02-06T06:50:59.732Z,1020.68
2017-02-06T06:51:40.512Z,1020.7
2017-02-06T06:52:22.118Z,1020.69
2017-02-06T06:53:02.802Z,1020.73
2017-02-06T06:53:43.464Z,1020.71
2017-02-06T06:54:24.118Z,1020.72
2017-02-06T06:55:04.824Z,1020.72
2017-02-06T06:55:45.453Z,1020.68
2017-02-06T06:56:26.168Z,1020.7
2017-02-06T06:57:06.836Z,1020.67
2017-02-06T06:57:47.452Z,1020.67
2017-02-06T06:58:28.156Z,1020.67
2017-02-06T06:59:08.784Z,1020.65
2017-02-06T06:59:49.409Z,1020.64
2017-02-06T07:00:30.086Z,1020.65
2017-02-06T07:01:10.768Z,1020.66
2017-02-06T07:01:51.454Z,1020.63
2017-02-06T07:02:32.118Z,1020.61
2017-02-06T07:03:12.742Z,1020.62
2017-02-06T07:03:53.433Z,1020.6
2017-02-06T07:04:34.085Z,1020.59
2017-02-06T07:05:14.775Z,1020.57
2017-02-06T07:05:55.575Z,1020.55
2017-02-06T07:06:36.184Z,1020.56
2017-02-06T07:07:16.901Z,1020.53
2017-02-06T07:07:57.526Z,1020.59
2017-02-06T07:08:38.181Z,1020.58
2017-02-06T07:09:18.818Z,1020.55
2017-02-06T07:09:59.443Z,1020.53
2017-02-06T07:10:40.136Z,1020.56
2017-02-06T07:11:20.779Z,1020.56
2017-02-06T07:12:01.517Z,1020.57
2017-02-06T07:12:42.243Z,1020.59
2017-02-06T07:13:22.875Z,1020.51
2017-02-06T07:14:03.571Z,1020.56
2017-02-06T07:14:44.197Z,1020.57
2017-02-06T07:15:24.925Z,1020.57
2017-02-06T07:16:05.550Z,1020.56
2017-02-06T07:16:46.294Z,1020.54
2017-02-06T07:17:26.922Z,1020.57
2017-02-06T07:18:07.587Z,1020.59
2017-02-06T07:18:48.291Z,1020.58
2017-02-06T07:19:28.937Z,1020.57
2017-02-06T07:20:09.580Z,1020.51
2017-02-06T07:20:50.304Z,1020.57
2017-02-06T07:21:30.995Z,1020.53
2017-02-06T07:22:11.641Z,1020.55
2017-02-06T07:22:52.275Z,1020.52
2017-02-06T07:23:33.716Z,1020.56
2017-02-06T07:24:14.346Z,1020.53
2017-02-06T07:24:55.049Z,1020.53
2017-02-06T07:25:36.603Z,1020.52
2017-02-06T07:26:17.234Z,1020.53
2017-02-06T07:26:57.894Z,1020.51
2017-02-06T07:27:38.630Z,1020.49
2017-02-06T07:28:19.268Z,1020.51
2017-02-06T07:28:59.984Z,1020.5
2017-02-06T07:29:40.668Z,1020.52
2017-02-06T07:30:21.322Z,1020.53
2017-02-06T07:31:02.022Z,1020.53
2017-02-06T07:31:42.756Z,1020.51
2017-02-06T07:32:23.444Z,1020.49
2017-02-06T07:33:04.063Z,1020.53
2017-02-06T07:33:44.774Z,1020.51
2017-02-06T07:34:25.474Z,1020.51
2017-02-06T07:35:06.157Z,1020.52
2017-02-06T07:35:46.826Z,1020.55
2017-02-06T07:36:27.559Z,1020.53
2017-02-06T07:37:08.214Z,1020.54
2017-02-06T07:37:48.877Z,1020.58
2017-02-06T07:38:29.566Z,1020.59
2017-02-06T07:39:10.211Z,1020.55
2017-02-06T07:39:50.830Z,1020.56
2017-02-06T07:40:31.527Z,1020.55
2017-02-06T07:41:12.159Z,1020.53
2017-02-06T07:41:52.787Z,1020.53
2017-02-06T07:42:33.475Z,1020.49
2017-02-06T07:43:14.147Z,1020.55
2017-02-06T07:43:54.805Z,1020.55
2017-02-06T07:44:35.491Z,1020.54
2017-02-06T07:45:16.224Z,1020.58
2017-02-06T07:45:56.902Z,1020.54
2017-02-06T07:46:37.553Z,1020.55
2017-02-06T07:47:18.236Z,1020.53
2017-02-06T07:47:58.900Z,1020.54
2017-02-06T07:48:39.562Z,1020.55
2017-02-06T07:49:20.224Z,1020.54
2017-02-06T07:50:00.939Z,1020.53
2017-02-06T07:50:41.592Z,1020.55
2017-02-06T07:51:22.230Z,1020.54
2017-02-06T07:52:02.980Z,1020.54
2017-02-06T07:52:43.632Z,1020.54
2017-02-06T07:53:24.263Z,1020.56
2017-02-06T07:54:04.953Z,1020.58
2017-02-06T07:54:45.713Z,1020.53
2017-02-06T07:55:26.383Z,1020.55
2017-02-06T07:56:07.003Z,1020.56
2017-02-06T07:56:47.629Z,1020.57
2017-02-06T07:57:28.311Z,1020.63
2017-02-06T07:58:08.946Z,1020.58
2017-02-06T07:58:49.719Z,1020.61
2017-02-06T07:59:30.369Z,1020.61
2017-02-06T08:00:11.009Z,1020.6
2017-02-06T08:00:52.471Z,1020.63
2017-02-06T08:01:33.179Z,1020.61
2017-02-06T08:02:13.811Z,1020.64
2017-02-06T08:02:54.531Z,1020.63
2017-02-06T08:03:35.246Z,1020.65
2017-02-06T08:04:15.950Z,1020.69
2017-02-06T08:04:56.568Z,1020.69
2017-02-06T08:05:37.202Z,1020.65
2017-02-06T08:06:17.930Z,1020.67
2017-02-06T08:06:58.576Z,1020.65
2017-02-06T08:07:39.308Z,1020.67
2017-02-06T08:08:20.068Z,1020.63
2017-02-06T08:09:00.793Z,1020.66
2017-02-06T08:09:41.445Z,1020.63
2017-02-06T08:10:22.080Z,1020.61
2017-02-06T08:11:02.764Z,1020.59
2017-02-06T08:11:43.407Z,1020.61
2017-02-06T08:12:24.126Z,1020.59
2017-02-06T08:13:04.892Z,1020.58
2017-02-06T08:13:45.525Z,1020.61